createdAt,value
2023-01-05T00:02:25.047Z,98836.40
2023-01-05T00:07:28.959Z,98828.40
2023-01-05T00:12:52.273Z,98815.20
2023-01-05T00:18:14.860Z,98813.20
2023-01-05T00:23:20.217Z,98813.00
2023-01-05T00:28:24.442Z,98801.60
2023-01-05T00:33:28.100Z,98802.40
2023-01-05T00:38:31.880Z,98801.00
2023-01-05T00:43:35.376Z,98799.60
2023-01-05T00:48:39.199Z,98787.60
2023-01-05T00:53:42.771Z,98791.00
2023-01-05T00:58:46.519Z,98789.40
2023-01-05T01:03:50.207Z,98787.60
2023-01-05T01:08:54.086Z,98772.00
2023-01-05T01:13:57.906Z,98770.20
2023-01-05T01:19:05.341Z,98763.00
2023-01-05T01:24:15.298Z,98754.40
2023-01-05T01:29:20.257Z,98747.20
2023-01-05T01:34:24.741Z,98735.00
2023-01-05T01:39:28.526Z,98740.00
2023-01-05T01:44:57.425Z,98740.60
2023-01-05T01:50:16.353Z,98732.60
2023-01-05T01:55:21.764Z,98722.00
2023-01-05T02:00:25.636Z,98721.80
2023-01-05T02:05:33.330Z,98719.40
2023-01-05T02:11:25.864Z,98720.40
2023-01-05T02:17:02.852Z,98717.60
2023-01-05T02:23:03.612Z,98717.20
2023-01-05T02:28:43.990Z,98714.60
2023-01-05T02:34:23.559Z,98710.00
2023-01-05T02:39:51.101Z,98711.20
2023-01-05T02:44:55.241Z,98701.00
2023-01-05T02:50:07.007Z,98712.20
2023-01-05T02:55:18.241Z,98696.80
2023-01-05T03:00:32.342Z,98696.80
2023-01-05T03:05:53.244Z,98695.80
2023-01-05T03:11:27.681Z,98695.20
2023-01-05T03:16:37.107Z,98687.20
2023-01-05T03:22:00.750Z,98680.60
2023-01-05T03:27:25.366Z,98672.00
2023-01-05T03:32:50.793Z,98678.60
2023-01-05T03:38:48.369Z,98674.60
2023-01-05T03:43:52.219Z,98682.80
2023-01-05T03:48:55.912Z,98681.20
2023-01-05T03:53:59.533Z,98683.60
2023-01-05T03:59:03.491Z,98678.80
2023-01-05T04:04:07.080Z,98675.60
2023-01-05T04:09:10.865Z,98672.60
2023-01-05T04:14:14.596Z,98674.80
2023-01-05T04:19:18.743Z,98667.60
2023-01-05T04:24:22.530Z,98659.40
2023-01-05T04:29:26.249Z,98678.80
2023-01-05T04:34:29.787Z,98679.80
2023-01-05T04:39:33.525Z,98672.00
2023-01-05T04:44:37.210Z,98668.20
2023-01-05T04:49:41.000Z,98669.40
2023-01-05T04:54:44.732Z,98669.60
2023-01-05T04:59:49.091Z,98674.00
2023-01-05T05:04:52.870Z,98670.20
2023-01-05T05:09:56.610Z,98669.20
2023-01-05T05:15:00.270Z,98670.60
2023-01-05T05:20:06.074Z,98676.00
2023-01-05T05:25:10.239Z,98668.20
2023-01-05T05:30:14.662Z,98671.20
2023-01-05T05:35:18.443Z,98671.80
2023-01-05T05:40:22.344Z,98674.40
2023-01-05T05:45:26.128Z,98670.20
2023-01-05T05:50:29.840Z,98674.00
2023-01-05T05:55:34.882Z,98677.40
2023-01-05T06:00:38.648Z,98670.00
2023-01-05T06:05:42.427Z,98677.00
2023-01-05T06:10:46.067Z,98676.60
2023-01-05T06:15:50.988Z,98671.20
2023-01-05T06:21:01.357Z,98677.00
2023-01-05T06:26:06.419Z,98676.00
2023-01-05T06:31:10.252Z,98688.60
2023-01-05T06:36:14.093Z,98689.60
2023-01-05T06:41:17.608Z,98694.40
2023-01-05T06:46:21.265Z,98698.40
2023-01-05T06:51:25.052Z,98703.80
2023-01-05T06:56:28.627Z,98721.80
2023-01-05T07:01:32.415Z,98722.00
2023-01-05T07:06:36.517Z,98729.60
2023-01-05T07:11:40.376Z,98737.80
2023-01-05T07:16:44.072Z,98743.20
2023-01-05T07:21:51.891Z,98743.60
2023-01-05T07:27:05.868Z,98756.20
2023-01-05T07:32:13.185Z,98766.20
2023-01-05T07:37:17.060Z,98771.80
2023-01-05T07:42:20.812Z,98778.00
2023-01-05T07:47:24.520Z,98791.60
2023-01-05T07:52:31.097Z,98784.40
2023-01-05T07:57:34.911Z,98789.60
2023-01-05T08:02:39.063Z,98798.00
2023-01-05T08:07:42.881Z,98803.80
2023-01-05T08:13:05.190Z,98814.20
2023-01-05T08:18:08.794Z,98817.00
2023-01-05T08:23:12.547Z,98818.40
2023-01-05T08:28:35.270Z,98820.20
2023-01-05T08:33:39.814Z,98816.00
2023-01-05T08:38:48.795Z,98820.60
2023-01-05T08:43:56.194Z,98823.60
2023-01-05T08:49:03.837Z,98823.00
2023-01-05T08:54:08.209Z,98827.40
2023-01-05T08:59:15.195Z,98838.80
2023-01-05T09:04:18.924Z,98842.40
2023-01-05T09:09:24.755Z,98847.80
2023-01-05T09:14:28.805Z,98852.40
2023-01-05T09:19:32.588Z,98857.80
2023-01-05T09:24:36.396Z,98860.40
2023-01-05T09:29:40.300Z,98858.00
2023-01-05T09:34:44.117Z,98856.00
2023-01-05T09:39:48.510Z,98858.40
2023-01-05T09:45:00.400Z,98861.00
2023-01-05T09:50:12.885Z,98855.80
2023-01-05T09:55:20.819Z,98853.40
2023-01-05T10:00:27.547Z,98853.80
2023-01-05T10:05:43.799Z,98861.60
2023-01-05T10:11:21.063Z,98859.60
2023-01-05T10:16:29.452Z,98859.80
2023-01-05T10:21:40.991Z,98860.60
2023-01-05T10:27:26.187Z,98859.00
2023-01-05T10:33:26.608Z,98855.80
2023-01-05T10:38:42.159Z,98858.20
2023-01-05T10:44:12.438Z,98853.40
2023-01-05T10:49:26.687Z,98852.00
2023-01-05T10:54:39.202Z,98848.80
2023-01-05T10:59:59.595Z,98852.80
2023-01-05T11:05:35.341Z,98846.80
2023-01-05T11:10:53.460Z,98846.80
2023-01-05T11:16:10.217Z,98844.20
2023-01-05T11:21:26.813Z,98849.40
2023-01-05T11:27:00.345Z,98844.20
2023-01-05T11:32:10.200Z,98847.40
2023-01-05T11:37:31.274Z,98843.80
2023-01-05T11:42:42.979Z,98839.60
2023-01-05T11:47:58.916Z,98845.00
2023-01-05T11:53:03.486Z,98853.00
2023-01-05T11:58:23.795Z,98847.60
2023-01-05T12:03:46.403Z,98841.00
2023-01-05T12:09:19.853Z,98847.60
2023-01-05T12:14:59.385Z,98850.20
2023-01-05T12:20:30.941Z,98846.80
2023-01-05T12:26:15.223Z,98846.00
2023-01-05T12:33:44.552Z,98853.60
2023-01-05T12:37:53.464Z,98848.40
2023-01-05T12:43:13.125Z,98847.40
2023-01-05T12:48:36.689Z,98842.60
2023-01-05T12:53:52.597Z,98842.60
2023-01-05T12:59:23.851Z,98850.60
2023-01-05T13:04:56.468Z,98851.40
2023-01-05T13:10:13.015Z,98851.80
2023-01-05T13:15:42.410Z,98852.20
2023-01-05T13:21:02.702Z,98876.40
2023-01-05T13:26:13.498Z,98886.40
2023-01-05T13:31:51.744Z,98904.00
2023-01-05T13:37:57.491Z,98915.80
2023-01-05T13:43:18.683Z,98928.20
2023-01-05T13:49:08.870Z,98933.80
2023-01-05T13:54:26.909Z,98945.40
2023-01-05T13:59:44.585Z,98956.60
2023-01-05T14:04:51.013Z,98967.60
2023-01-05T14:09:58.331Z,98982.80
2023-01-05T14:15:09.700Z,98993.60
2023-01-05T14:20:54.505Z,98999.20
2023-01-05T14:26:05.030Z,99019.40
2023-01-05T14:31:08.577Z,99032.00
2023-01-05T14:37:13.014Z,99040.80
2023-01-05T14:42:41.762Z,99055.00
2023-01-05T14:47:53.531Z,99073.60
2023-01-05T14:53:08.791Z,99081.40
2023-01-05T14:58:38.534Z,99087.80
2023-01-05T15:04:09.688Z,99095.60
2023-01-05T15:10:27.763Z,99104.60
2023-01-05T15:16:17.346Z,99112.60
2023-01-05T15:21:49.468Z,99119.80
2023-01-05T15:27:31.307Z,99123.00
2023-01-05T15:32:44.719Z,99127.20
2023-01-05T15:37:52.758Z,99136.80
2023-01-05T15:43:04.628Z,99148.60
2023-01-05T15:48:28.418Z,99166.60
2023-01-05T15:53:43.737Z,99183.80
2023-01-05T15:58:50.371Z,99200.20
2023-01-05T16:04:11.961Z,99224.00
2023-01-05T16:09:46.142Z,99249.40
2023-01-05T16:15:02.837Z,99273.80
2023-01-05T16:20:26.089Z,99276.20
2023-01-05T16:25:37.783Z,99309.60
2023-01-05T16:30:43.773Z,99335.80
2023-01-05T16:35:51.479Z,99351.80
2023-01-05T16:41:12.838Z,99365.60
2023-01-05T16:46:20.133Z,99386.80
2023-01-05T16:51:39.821Z,99412.20
2023-01-05T16:57:02.319Z,99431.20
2023-01-05T17:02:44.631Z,99444.40
2023-01-05T17:08:17.293Z,99455.20
2023-01-05T17:13:47.785Z,99466.80
2023-01-05T17:18:53.027Z,99490.20
2023-01-05T17:24:00.126Z,99508.20
2023-01-05T17:29:07.513Z,99519.20
2023-01-05T17:34:11.871Z,99542.20
2023-01-05T17:39:22.306Z,99566.00
2023-01-05T17:44:26.188Z,99580.40
2023-01-05T17:49:29.911Z,99607.20
2023-01-05T17:54:33.911Z,99623.20
2023-01-05T17:59:37.502Z,99645.20
2023-01-05T18:04:41.796Z,99671.00
2023-01-05T18:09:45.665Z,99686.40
2023-01-05T18:14:50.946Z,99695.80
2023-01-05T18:19:55.122Z,99712.60
2023-01-05T18:25:03.941Z,99727.00
2023-01-05T18:30:13.791Z,99739.40
2023-01-05T18:35:20.289Z,99760.00
2023-01-05T18:40:25.655Z,99783.40
2023-01-05T18:45:41.267Z,99795.00
2023-01-05T18:50:55.871Z,99815.00
2023-01-05T18:56:20.525Z,99823.80
2023-01-05T19:01:28.761Z,99850.00
2023-01-05T19:06:33.249Z,99865.80
2023-01-05T19:11:45.554Z,99878.00
2023-01-05T19:16:49.508Z,99908.80
2023-01-05T19:21:54.476Z,99922.00
2023-01-05T19:26:58.541Z,99925.60
2023-01-05T19:32:03.037Z,99930.80
2023-01-05T19:37:07.040Z,99945.20
2023-01-05T19:42:11.292Z,99962.00
2023-01-05T19:47:15.087Z,99973.00
2023-01-05T19:52:19.121Z,99982.80
2023-01-05T19:57:23.124Z,99999.80
2023-01-05T20:02:27.442Z,100013.20
2023-01-05T20:07:32.249Z,100029.00
2023-01-05T20:12:36.727Z,100041.20
2023-01-05T20:17:42.667Z,100048.80
2023-01-05T20:22:46.798Z,100074.40
2023-01-05T20:27:51.270Z,100076.60
2023-01-05T20:32:55.051Z,100094.40
2023-01-05T20:37:59.183Z,100115.00
2023-01-05T20:43:03.433Z,100124.00
2023-01-05T20:48:07.625Z,100136.60
2023-01-05T20:53:11.542Z,100150.60
2023-01-05T20:58:16.003Z,100164.60
2023-01-05T21:03:22.879Z,100188.00
2023-01-05T21:08:27.853Z,100198.60
2023-01-05T21:13:34.030Z,100209.40
2023-01-05T21:18:44.339Z,100227.60
2023-01-05T21:23:51.877Z,100244.00
2023-01-05T21:28:56.652Z,100247.80
2023-01-05T21:34:00.545Z,100250.20
2023-01-05T21:39:09.825Z,100271.20
2023-01-05T21:44:16.437Z,100278.00
2023-01-05T21:49:21.545Z,100291.00
2023-01-05T21:54:46.850Z,100293.40
2023-01-05T21:59:51.171Z,100313.20
2023-01-05T22:04:55.147Z,100319.40
2023-01-05T22:10:00.867Z,100322.60
2023-01-05T22:15:07.855Z,100337.60
2023-01-05T22:20:14.781Z,100340.40
2023-01-05T22:25:19.537Z,100366.20
2023-01-05T22:30:23.675Z,100378.20
2023-01-05T22:35:28.980Z,100393.00
2023-01-05T22:40:33.083Z,100411.20
2023-01-05T22:45:37.452Z,100408.80
2023-01-05T22:50:42.750Z,100428.40
2023-01-05T22:55:47.644Z,100429.80
2023-01-05T23:00:52.316Z,100443.40
2023-01-05T23:05:56.177Z,100455.00
2023-01-05T23:11:03.246Z,100467.20
2023-01-05T23:16:08.600Z,100479.80
2023-01-05T23:21:15.153Z,100481.80
2023-01-05T23:26:19.044Z,100488.60
2023-01-05T23:31:23.123Z,100496.60
2023-01-05T23:36:26.902Z,100497.00
2023-01-05T23:41:31.197Z,100514.00
2023-01-05T23:46:35.077Z,100507.20
2023-01-05T23:51:38.921Z,100515.20
2023-01-05T23:56:42.697Z,100532.60
